sensor_id;sensor_type;location;lat;lon;timestamp;temperature;humidity
19970;DHT22;10146;47.754;9.566;2023-07-13T00:01:14;18.10;99.90
19970;DHT22;10146;47.754;9.566;2023-07-13T00:03:39;18.10;99.90
19970;DHT22;10146;47.754;9.566;2023-07-13T00:06:07;18.10;99.90
19970;DHT22;10146;47.754;9.566;2023-07-13T00:08:33;18.10;99.90
19970;DHT22;10146;47.754;9.566;2023-07-13T00:11:00;18.10;99.90
19970;DHT22;10146;47.754;9.566;2023-07-13T00:13:27;18.10;99.90
19970;DHT22;10146;47.754;9.566;2023-07-13T00:15:52;18.00;99.90
19970;DHT22;10146;47.754;9.566;2023-07-13T00:18:20;18.00;99.90
19970;DHT22;10146;47.754;9.566;2023-07-13T00:20:46;18.00;99.90
19970;DHT22;10146;47.754;9.566;2023-07-13T00:23:11;18.00;99.90
19970;DHT22;10146;47.754;9.566;2023-07-13T00:25:37;17.90;99.90
19970;DHT22;10146;47.754;9.566;2023-07-13T00:28:03;17.90;99.90
19970;DHT22;10146;47.754;9.566;2023-07-13T00:30:28;17.90;99.90
19970;DHT22;10146;47.754;9.566;2023-07-13T00:32:54;17.90;99.90
19970;DHT22;10146;47.754;9.566;2023-07-13T00:35:19;17.80;99.90
19970;DHT22;10146;47.754;9.566;2023-07-13T00:37:45;17.80;99.90
19970;DHT22;10146;47.754;9.566;2023-07-13T00:40:12;17.90;99.90
19970;DHT22;10146;47.754;9.566;2023-07-13T00:42:39;17.80;99.90
19970;DHT22;10146;47.754;9.566;2023-07-13T00:47:33;17.80;99.90
19970;DHT22;10146;47.754;9.566;2023-07-13T00:49:59;17.90;99.90
19970;DHT22;10146;47.754;9.566;2023-07-13T00:52:25;17.80;99.90
19970;DHT22;10146;47.754;9.566;2023-07-13T00:54:51;17.80;99.90
19970;DHT22;10146;47.754;9.566;2023-07-13T00:57:19;17.80;99.90
19970;DHT22;10146;47.754;9.566;2023-07-13T00:59:48;17.70;99.90
19970;DHT22;10146;47.754;9.566;2023-07-13T01:02:15;17.70;99.90
19970;DHT22;10146;47.754;9.566;2023-07-13T01:04:41;17.70;99.90
19970;DHT22;10146;47.754;9.566;2023-07-13T01:07:10;17.70;99.90
19970;DHT22;10146;47.754;9.566;2023-07-13T01:09:37;17.70;99.90
19970;DHT22;10146;47.754;9.566;2023-07-13T01:12:03;17.70;99.90
19970;DHT22;10146;47.754;9.566;2023-07-13T01:14:29;17.70;99.90
19970;DHT22;10146;47.754;9.566;2023-07-13T01:16:54;17.70;99.90
19970;DHT22;10146;47.754;9.566;2023-07-13T01:19:39;17.70;99.90
19970;DHT22;10146;47.754;9.566;2023-07-13T01:22:08;17.70;99.90
19970;DHT22;10146;47.754;9.566;2023-07-13T01:24:35;17.70;99.90
19970;DHT22;10146;47.754;9.566;2023-07-13T01:27:02;17.70;99.90
19970;DHT22;10146;47.754;9.566;2023-07-13T01:29:28;17.70;99.90
19970;DHT22;10146;47.754;9.566;2023-07-13T01:31:53;17.60;99.90
19970;DHT22;10146;47.754;9.566;2023-07-13T01:34:19;17.60;99.90
19970;DHT22;10146;47.754;9.566;2023-07-13T01:36:44;17.60;99.90
19970;DHT22;10146;47.754;9.566;2023-07-13T01:39:10;17.50;99.90
19970;DHT22;10146;47.754;9.566;2023-07-13T01:41:35;17.50;99.90
19970;DHT22;10146;47.754;9.566;2023-07-13T01:44:01;17.50;99.90
19970;DHT22;10146;47.754;9.566;2023-07-13T01:46:27;17.60;99.90
19970;DHT22;10146;47.754;9.566;2023-07-13T01:48:52;17.50;99.90
19970;DHT22;10146;47.754;9.566;2023-07-13T01:51:18;17.50;99.90
19970;DHT22;10146;47.754;9.566;2023-07-13T01:53:44;17.50;99.90
19970;DHT22;10146;47.754;9.566;2023-07-13T01:56:10;17.50;99.90
19970;DHT22;10146;47.754;9.566;2023-07-13T01:58:36;17.50;99.90
19970;DHT22;10146;47.754;9.566;2023-07-13T02:01:01;17.50;99.90
19970;DHT22;10146;47.754;9.566;2023-07-13T02:03:27;17.60;99.90
19970;DHT22;10146;47.754;9.566;2023-07-13T02:05:52;17.60;99.90
19970;DHT22;10146;47.754;9.566;2023-07-13T02:08:18;17.60;99.90
19970;DHT22;10146;47.754;9.566;2023-07-13T02:10:43;17.60;99.90
19970;DHT22;10146;47.754;9.566;2023-07-13T02:13:09;17.60;99.90
19970;DHT22;10146;47.754;9.566;2023-07-13T02:15:38;17.70;99.90
19970;DHT22;10146;47.754;9.566;2023-07-13T02:18:04;17.60;99.90
19970;DHT22;10146;47.754;9.566;2023-07-13T02:20:30;17.60;99.90
19970;DHT22;10146;47.754;9.566;2023-07-13T02:22:55;17.60;99.90
19970;DHT22;10146;47.754;9.566;2023-07-13T02:25:21;17.60;99.90
19970;DHT22;10146;47.754;9.566;2023-07-13T02:27:47;17.60;99.90
19970;DHT22;10146;47.754;9.566;2023-07-13T02:30:14;17.60;99.90
19970;DHT22;10146;47.754;9.566;2023-07-13T02:32:40;17.50;99.90
19970;DHT22;10146;47.754;9.566;2023-07-13T02:35:06;17.50;99.90
19970;DHT22;10146;47.754;9.566;2023-07-13T02:37:31;17.50;99.90
19970;DHT22;10146;47.754;9.566;2023-07-13T02:39:57;17.60;99.90
19970;DHT22;10146;47.754;9.566;2023-07-13T02:42:23;17.60;99.90
19970;DHT22;10146;47.754;9.566;2023-07-13T02:44:48;17.50;99.90
19970;DHT22;10146;47.754;9.566;2023-07-13T02:47:16;17.50;99.90
19970;DHT22;10146;47.754;9.566;2023-07-13T02:49:41;17.60;99.90
19970;DHT22;10146;47.754;9.566;2023-07-13T02:52:07;17.60;99.90
19970;DHT22;10146;47.754;9.566;2023-07-13T02:54:33;17.60;99.90
19970;DHT22;10146;47.754;9.566;2023-07-13T02:56:58;17.60;99.90
19970;DHT22;10146;47.754;9.566;2023-07-13T02:59:24;17.60;99.90
19970;DHT22;10146;47.754;9.566;2023-07-13T03:01:50;17.60;99.90
19970;DHT22;10146;47.754;9.566;2023-07-13T03:04:15;17.60;99.90
19970;DHT22;10146;47.754;9.566;2023-07-13T03:06:45;17.60;99.90
19970;DHT22;10146;47.754;9.566;2023-07-13T03:09:10;17.70;99.90
19970;DHT22;10146;47.754;9.566;2023-07-13T03:11:38;17.60;99.90
19970;DHT22;10146;47.754;9.566;2023-07-13T03:14:03;17.60;99.90
19970;DHT22;10146;47.754;9.566;2023-07-13T03:16:29;17.70;99.90
19970;DHT22;10146;47.754;9.566;2023-07-13T03:18:55;17.70;99.90
19970;DHT22;10146;47.754;9.566;2023-07-13T03:21:21;17.70;99.90
19970;DHT22;10146;47.754;9.566;2023-07-13T03:23:46;17.80;99.90
19970;DHT22;10146;47.754;9.566;2023-07-13T03:26:15;17.80;99.90
19970;DHT22;10146;47.754;9.566;2023-07-13T03:28:41;17.80;99.90
19970;DHT22;10146;47.754;9.566;2023-07-13T03:31:13;17.80;99.90
19970;DHT22;10146;47.754;9.566;2023-07-13T03:33:39;17.90;99.90
19970;DHT22;10146;47.754;9.566;2023-07-13T03:36:06;17.90;99.90
19970;DHT22;10146;47.754;9.566;2023-07-13T03:38:33;17.80;99.90
19970;DHT22;10146;47.754;9.566;2023-07-13T03:40:59;17.80;99.90
19970;DHT22;10146;47.754;9.566;2023-07-13T03:43:25;17.80;99.90
19970;DHT22;10146;47.754;9.566;2023-07-13T03:45:51;17.80;99.90
19970;DHT22;10146;47.754;9.566;2023-07-13T03:48:16;17.90;99.90
19970;DHT22;10146;47.754;9.566;2023-07-13T03:50:42;17.90;99.90
19970;DHT22;10146;47.754;9.566;2023-07-13T03:53:07;17.90;99.90
19970;DHT22;10146;47.754;9.566;2023-07-13T03:55:33;17.80;99.90
19970;DHT22;10146;47.754;9.566;2023-07-13T03:58:23;17.90;99.90
19970;DHT22;10146;47.754;9.566;2023-07-13T04:00:47;17.90;99.90
19970;DHT22;10146;47.754;9.566;2023-07-13T04:03:12;17.80;99.90
19970;DHT22;10146;47.754;9.566;2023-07-13T04:05:38;17.90;99.90
19970;DHT22;10146;47.754;9.566;2023-07-13T04:08:06;17.80;99.90
19970;DHT22;10146;47.754;9.566;2023-07-13T04:10:31;17.80;99.90
19970;DHT22;10146;47.754;9.566;2023-07-13T04:12:57;17.80;99.90
19970;DHT22;10146;47.754;9.566;2023-07-13T04:15:22;17.80;99.90
19970;DHT22;10146;47.754;9.566;2023-07-13T04:17:48;17.90;99.90
19970;DHT22;10146;47.754;9.566;2023-07-13T04:20:13;17.90;99.90
19970;DHT22;10146;47.754;9.566;2023-07-13T04:22:39;17.90;99.90
19970;DHT22;10146;47.754;9.566;2023-07-13T04:25:05;18.00;99.90
19970;DHT22;10146;47.754;9.566;2023-07-13T04:27:31;17.90;99.90
19970;DHT22;10146;47.754;9.566;2023-07-13T04:29:56;18.00;99.90
19970;DHT22;10146;47.754;9.566;2023-07-13T04:32:22;18.00;99.90
19970;DHT22;10146;47.754;9.566;2023-07-13T04:34:47;18.00;99.90
19970;DHT22;10146;47.754;9.566;2023-07-13T04:37:17;18.00;99.90
19970;DHT22;10146;47.754;9.566;2023-07-13T04:39:42;18.00;99.90
19970;DHT22;10146;47.754;9.566;2023-07-13T04:42:08;18.00;99.90
19970;DHT22;10146;47.754;9.566;2023-07-13T04:44:34;17.90;99.90
19970;DHT22;10146;47.754;9.566;2023-07-13T04:47:00;17.90;99.90
19970;DHT22;10146;47.754;9.566;2023-07-13T04:49:25;17.90;99.90
19970;DHT22;10146;47.754;9.566;2023-07-13T04:51:51;18.00;99.90
19970;DHT22;10146;47.754;9.566;2023-07-13T04:54:16;18.00;99.90
19970;DHT22;10146;47.754;9.566;2023-07-13T04:56:42;17.90;99.90
19970;DHT22;10146;47.754;9.566;2023-07-13T04:59:07;18.00;99.90
19970;DHT22;10146;47.754;9.566;2023-07-13T05:01:33;18.00;99.90
19970;DHT22;10146;47.754;9.566;2023-07-13T05:03:59;18.10;99.90
19970;DHT22;10146;47.754;9.566;2023-07-13T05:06:25;18.10;99.90
19970;DHT22;10146;47.754;9.566;2023-07-13T05:08:50;18.10;99.90
19970;DHT22;10146;47.754;9.566;2023-07-13T05:11:18;18.20;99.90
19970;DHT22;10146;47.754;9.566;2023-07-13T05:13:43;18.20;99.90
19970;DHT22;10146;47.754;9.566;2023-07-13T05:16:09;18.20;99.90
19970;DHT22;10146;47.754;9.566;2023-07-13T05:18:35;18.20;99.90
19970;DHT22;10146;47.754;9.566;2023-07-13T05:21:08;18.30;99.90
19970;DHT22;10146;47.754;9.566;2023-07-13T05:23:35;18.30;99.90
19970;DHT22;10146;47.754;9.566;2023-07-13T05:26:00;18.30;99.90
19970;DHT22;10146;47.754;9.566;2023-07-13T05:28:27;18.30;99.90
19970;DHT22;10146;47.754;9.566;2023-07-13T05:30:54;18.40;99.90
19970;DHT22;10146;47.754;9.566;2023-07-13T05:33:20;18.50;99.90
19970;DHT22;10146;47.754;9.566;2023-07-13T05:35:46;18.60;99.90
19970;DHT22;10146;47.754;9.566;2023-07-13T05:38:12;18.60;99.90
19970;DHT22;10146;47.754;9.566;2023-07-13T05:40:37;18.80;99.90
19970;DHT22;10146;47.754;9.566;2023-07-13T05:43:03;18.80;99.90
19970;DHT22;10146;47.754;9.566;2023-07-13T05:45:29;18.80;99.90
19970;DHT22;10146;47.754;9.566;2023-07-13T05:47:54;18.90;99.90
19970;DHT22;10146;47.754;9.566;2023-07-13T05:50:20;19.00;99.90
19970;DHT22;10146;47.754;9.566;2023-07-13T05:52:46;18.90;99.90
19970;DHT22;10146;47.754;9.566;2023-07-13T05:55:12;18.90;99.90
19970;DHT22;10146;47.754;9.566;2023-07-13T05:57:38;18.90;99.90
19970;DHT22;10146;47.754;9.566;2023-07-13T06:00:04;18.90;99.90
19970;DHT22;10146;47.754;9.566;2023-07-13T06:02:30;19.00;99.90
19970;DHT22;10146;47.754;9.566;2023-07-13T06:04:55;19.00;99.90
19970;DHT22;10146;47.754;9.566;2023-07-13T06:07:21;19.10;99.90
19970;DHT22;10146;47.754;9.566;2023-07-13T06:09:47;19.10;99.90
19970;DHT22;10146;47.754;9.566;2023-07-13T06:12:12;19.20;99.90
19970;DHT22;10146;47.754;9.566;2023-07-13T06:14:38;19.30;99.90
19970;DHT22;10146;47.754;9.566;2023-07-13T06:17:04;19.30;99.90
19970;DHT22;10146;47.754;9.566;2023-07-13T06:19:29;19.30;99.90
19970;DHT22;10146;47.754;9.566;2023-07-13T06:21:55;19.40;99.90
19970;DHT22;10146;47.754;9.566;2023-07-13T06:24:21;19.50;99.90
19970;DHT22;10146;47.754;9.566;2023-07-13T06:26:47;19.40;99.90
19970;DHT22;10146;47.754;9.566;2023-07-13T06:29:12;19.40;99.90
19970;DHT22;10146;47.754;9.566;2023-07-13T06:31:38;19.30;99.90
19970;DHT22;10146;47.754;9.566;2023-07-13T06:34:03;19.30;99.90
19970;DHT22;10146;47.754;9.566;2023-07-13T06:36:29;19.30;99.90
19970;DHT22;10146;47.754;9.566;2023-07-13T06:38:55;19.40;99.90
19970;DHT22;10146;47.754;9.566;2023-07-13T06:41:20;19.40;99.90
19970;DHT22;10146;47.754;9.566;2023-07-13T06:43:47;19.40;99.90
19970;DHT22;10146;47.754;9.566;2023-07-13T06:46:13;19.40;99.90
19970;DHT22;10146;47.754;9.566;2023-07-13T06:48:38;19.40;99.90
19970;DHT22;10146;47.754;9.566;2023-07-13T06:51:04;19.30;99.90
19970;DHT22;10146;47.754;9.566;2023-07-13T06:53:30;19.40;99.90
19970;DHT22;10146;47.754;9.566;2023-07-13T06:55:55;19.30;99.90
19970;DHT22;10146;47.754;9.566;2023-07-13T06:58:21;19.30;99.90
19970;DHT22;10146;47.754;9.566;2023-07-13T07:00:50;19.30;99.90
19970;DHT22;10146;47.754;9.566;2023-07-13T07:03:17;19.30;99.90
19970;DHT22;10146;47.754;9.566;2023-07-13T07:05:42;19.30;99.90
19970;DHT22;10146;47.754;9.566;2023-07-13T07:08:08;19.30;99.90
19970;DHT22;10146;47.754;9.566;2023-07-13T07:10:34;19.40;99.90
19970;DHT22;10146;47.754;9.566;2023-07-13T07:13:00;19.40;99.90
19970;DHT22;10146;47.754;9.566;2023-07-13T07:15:26;19.40;99.90
19970;DHT22;10146;47.754;9.566;2023-07-13T07:17:52;19.40;99.90
19970;DHT22;10146;47.754;9.566;2023-07-13T07:20:18;19.40;99.90
19970;DHT22;10146;47.754;9.566;2023-07-13T07:22:43;19.50;99.90
19970;DHT22;10146;47.754;9.566;2023-07-13T07:25:09;19.50;99.90
19970;DHT22;10146;47.754;9.566;2023-07-13T07:27:35;19.50;99.90
19970;DHT22;10146;47.754;9.566;2023-07-13T07:30:00;19.40;99.90
19970;DHT22;10146;47.754;9.566;2023-07-13T07:32:26;19.40;99.90
19970;DHT22;10146;47.754;9.566;2023-07-13T07:34:51;19.50;99.90
19970;DHT22;10146;47.754;9.566;2023-07-13T07:37:17;19.60;99.90
19970;DHT22;10146;47.754;9.566;2023-07-13T07:39:43;19.70;99.90
19970;DHT22;10146;47.754;9.566;2023-07-13T07:42:10;19.80;99.90
19970;DHT22;10146;47.754;9.566;2023-07-13T07:44:35;19.80;99.90
19970;DHT22;10146;47.754;9.566;2023-07-13T07:47:01;19.80;99.90
19970;DHT22;10146;47.754;9.566;2023-07-13T07:49:27;19.90;99.90
19970;DHT22;10146;47.754;9.566;2023-07-13T07:51:53;19.90;99.90
19970;DHT22;10146;47.754;9.566;2023-07-13T07:54:19;19.90;99.90
19970;DHT22;10146;47.754;9.566;2023-07-13T07:56:44;20.00;99.90
19970;DHT22;10146;47.754;9.566;2023-07-13T07:59:10;20.00;99.90
19970;DHT22;10146;47.754;9.566;2023-07-13T08:01:36;20.00;99.90
19970;DHT22;10146;47.754;9.566;2023-07-13T08:04:02;20.10;99.90
19970;DHT22;10146;47.754;9.566;2023-07-13T08:06:28;19.90;99.90
19970;DHT22;10146;47.754;9.566;2023-07-13T08:08:54;19.90;99.90
19970;DHT22;10146;47.754;9.566;2023-07-13T08:11:21;19.90;99.90
19970;DHT22;10146;47.754;9.566;2023-07-13T08:13:47;19.70;99.90
19970;DHT22;10146;47.754;9.566;2023-07-13T08:16:12;19.60;99.90
19970;DHT22;10146;47.754;9.566;2023-07-13T08:18:38;19.60;99.90
19970;DHT22;10146;47.754;9.566;2023-07-13T08:21:05;19.60;99.90
19970;DHT22;10146;47.754;9.566;2023-07-13T08:23:31;19.60;99.90
19970;DHT22;10146;47.754;9.566;2023-07-13T08:25:57;19.60;99.90
19970;DHT22;10146;47.754;9.566;2023-07-13T08:28:23;19.80;99.90
19970;DHT22;10146;47.754;9.566;2023-07-13T08:30:49;19.90;99.90
19970;DHT22;10146;47.754;9.566;2023-07-13T08:33:18;20.00;99.90
19970;DHT22;10146;47.754;9.566;2023-07-13T08:35:48;20.20;99.90
19970;DHT22;10146;47.754;9.566;2023-07-13T08:38:14;20.10;99.90
19970;DHT22;10146;47.754;9.566;2023-07-13T08:40:41;20.10;99.90
19970;DHT22;10146;47.754;9.566;2023-07-13T08:43:19;20.10;99.90
19970;DHT22;10146;47.754;9.566;2023-07-13T08:48:46;20.40;99.90
19970;DHT22;10146;47.754;9.566;2023-07-13T08:54:01;20.40;99.90
19970;DHT22;10146;47.754;9.566;2023-07-13T08:56:29;20.40;99.90
19970;DHT22;10146;47.754;9.566;2023-07-13T08:59:01;20.50;99.90
19970;DHT22;10146;47.754;9.566;2023-07-13T09:04:21;20.90;99.90
19970;DHT22;10146;47.754;9.566;2023-07-13T09:09:36;21.10;99.90
19970;DHT22;10146;47.754;9.566;2023-07-13T09:12:35;21.10;99.90
19970;DHT22;10146;47.754;9.566;2023-07-13T09:15:24;21.20;99.90
19970;DHT22;10146;47.754;9.566;2023-07-13T09:17:52;21.20;99.90
19970;DHT22;10146;47.754;9.566;2023-07-13T09:20:29;21.40;99.90
19970;DHT22;10146;47.754;9.566;2023-07-13T09:22:56;21.70;99.90
19970;DHT22;10146;47.754;9.566;2023-07-13T09:25:29;21.90;99.90
19970;DHT22;10146;47.754;9.566;2023-07-13T09:28:00;22.20;99.90
19970;DHT22;10146;47.754;9.566;2023-07-13T09:30:43;22.30;99.90
19970;DHT22;10146;47.754;9.566;2023-07-13T09:33:10;22.30;99.90
19970;DHT22;10146;47.754;9.566;2023-07-13T09:35:36;22.40;99.90
19970;DHT22;10146;47.754;9.566;2023-07-13T09:38:11;22.30;99.90
19970;DHT22;10146;47.754;9.566;2023-07-13T09:40:46;22.20;99.90
19970;DHT22;10146;47.754;9.566;2023-07-13T09:43:16;22.30;99.90
19970;DHT22;10146;47.754;9.566;2023-07-13T09:45:45;22.40;99.90
19970;DHT22;10146;47.754;9.566;2023-07-13T09:48:13;22.40;99.90
19970;DHT22;10146;47.754;9.566;2023-07-13T09:50:40;22.40;99.90
19970;DHT22;10146;47.754;9.566;2023-07-13T09:53:12;22.30;99.90
19970;DHT22;10146;47.754;9.566;2023-07-13T09:55:39;22.30;99.90
19970;DHT22;10146;47.754;9.566;2023-07-13T09:58:10;22.30;99.90
19970;DHT22;10146;47.754;9.566;2023-07-13T10:00:37;22.30;99.90
19970;DHT22;10146;47.754;9.566;2023-07-13T10:03:26;22.50;99.90
19970;DHT22;10146;47.754;9.566;2023-07-13T10:05:51;22.70;99.90
19970;DHT22;10146;47.754;9.566;2023-07-13T10:08:26;22.90;99.90
19970;DHT22;10146;47.754;9.566;2023-07-13T10:10:57;23.10;99.90
19970;DHT22;10146;47.754;9.566;2023-07-13T10:13:26;23.10;99.90
19970;DHT22;10146;47.754;9.566;2023-07-13T10:15:53;23.20;99.90
19970;DHT22;10146;47.754;9.566;2023-07-13T10:18:20;23.10;99.90
19970;DHT22;10146;47.754;9.566;2023-07-13T10:20:46;23.10;99.90
19970;DHT22;10146;47.754;9.566;2023-07-13T10:23:21;22.90;99.90
19970;DHT22;10146;47.754;9.566;2023-07-13T10:25:49;22.60;99.90
19970;DHT22;10146;47.754;9.566;2023-07-13T10:30:51;22.50;99.90
19970;DHT22;10146;47.754;9.566;2023-07-13T10:33:19;22.60;99.90
19970;DHT22;10146;47.754;9.566;2023-07-13T10:35:46;22.70;99.90
19970;DHT22;10146;47.754;9.566;2023-07-13T10:38:18;22.70;99.90
19970;DHT22;10146;47.754;9.566;2023-07-13T10:40:52;22.60;99.90
19970;DHT22;10146;47.754;9.566;2023-07-13T10:43:28;22.70;99.90
19970;DHT22;10146;47.754;9.566;2023-07-13T10:45:56;22.70;99.90
19970;DHT22;10146;47.754;9.566;2023-07-13T10:48:23;22.70;99.90
19970;DHT22;10146;47.754;9.566;2023-07-13T10:50:52;22.70;99.90
19970;DHT22;10146;47.754;9.566;2023-07-13T10:53:22;22.60;99.90
19970;DHT22;10146;47.754;9.566;2023-07-13T10:58:24;22.30;99.90
19970;DHT22;10146;47.754;9.566;2023-07-13T11:03:25;22.40;99.90
19970;DHT22;10146;47.754;9.566;2023-07-13T11:06:08;22.50;99.90
19970;DHT22;10146;47.754;9.566;2023-07-13T11:08:38;22.70;99.90
19970;DHT22;10146;47.754;9.566;2023-07-13T11:19:23;24.10;99.90
19970;DHT22;10146;47.754;9.566;2023-07-13T11:22:11;24.50;99.90
19970;DHT22;10146;47.754;9.566;2023-07-13T11:24:57;24.60;99.90
19970;DHT22;10146;47.754;9.566;2023-07-13T11:27:45;24.70;99.90
19970;DHT22;10146;47.754;9.566;2023-07-13T11:35:35;25.20;99.90
19970;DHT22;10146;47.754;9.566;2023-07-13T11:38:03;25.00;99.90
19970;DHT22;10146;47.754;9.566;2023-07-13T11:40:34;24.90;99.90
19970;DHT22;10146;47.754;9.566;2023-07-13T11:43:00;24.80;99.90
19970;DHT22;10146;47.754;9.566;2023-07-13T11:45:26;24.70;99.90
19970;DHT22;10146;47.754;9.566;2023-07-13T11:47:54;24.70;99.90
19970;DHT22;10146;47.754;9.566;2023-07-13T11:50:23;24.80;99.90
19970;DHT22;10146;47.754;9.566;2023-07-13T11:52:51;24.80;99.90
19970;DHT22;10146;47.754;9.566;2023-07-13T11:55:20;25.10;99.90
19970;DHT22;10146;47.754;9.566;2023-07-13T11:57:53;25.20;99.90
19970;DHT22;10146;47.754;9.566;2023-07-13T12:00:25;25.40;99.90
19970;DHT22;10146;47.754;9.566;2023-07-13T12:02:54;25.30;99.90
19970;DHT22;10146;47.754;9.566;2023-07-13T12:05:20;25.30;99.90
19970;DHT22;10146;47.754;9.566;2023-07-13T12:07:47;25.40;99.90
19970;DHT22;10146;47.754;9.566;2023-07-13T12:10:25;25.50;99.90
19970;DHT22;10146;47.754;9.566;2023-07-13T12:12:57;25.50;99.90
19970;DHT22;10146;47.754;9.566;2023-07-13T12:15:28;25.40;99.90
19970;DHT22;10146;47.754;9.566;2023-07-13T12:17:56;25.40;99.90
19970;DHT22;10146;47.754;9.566;2023-07-13T12:20:25;25.20;99.90
19970;DHT22;10146;47.754;9.566;2023-07-13T12:22:52;24.90;99.90
19970;DHT22;10146;47.754;9.566;2023-07-13T12:25:19;24.60;99.90
19970;DHT22;10146;47.754;9.566;2023-07-13T12:27:50;24.70;99.90
19970;DHT22;10146;47.754;9.566;2023-07-13T12:30:30;25.20;99.90
19970;DHT22;10146;47.754;9.566;2023-07-13T12:33:02;25.60;99.90
19970;DHT22;10146;47.754;9.566;2023-07-13T12:35:45;25.60;99.90
19970;DHT22;10146;47.754;9.566;2023-07-13T12:38:12;25.50;99.90
19970;DHT22;10146;47.754;9.566;2023-07-13T12:40:38;25.80;99.90
19970;DHT22;10146;47.754;9.566;2023-07-13T12:43:11;26.10;99.90
19970;DHT22;10146;47.754;9.566;2023-07-13T12:45:38;26.20;99.90
19970;DHT22;10146;47.754;9.566;2023-07-13T12:48:12;26.10;99.90
19970;DHT22;10146;47.754;9.566;2023-07-13T12:50:41;25.80;99.90
19970;DHT22;10146;47.754;9.566;2023-07-13T12:53:13;25.60;99.90
19970;DHT22;10146;47.754;9.566;2023-07-13T12:55:52;25.60;99.90
19970;DHT22;10146;47.754;9.566;2023-07-13T12:58:30;25.70;99.90
19970;DHT22;10146;47.754;9.566;2023-07-13T13:01:00;25.90;99.90
19970;DHT22;10146;47.754;9.566;2023-07-13T13:03:34;26.10;99.90
19970;DHT22;10146;47.754;9.566;2023-07-13T13:06:04;26.20;99.90
19970;DHT22;10146;47.754;9.566;2023-07-13T13:08:36;26.40;99.90
19970;DHT22;10146;47.754;9.566;2023-07-13T13:11:03;26.30;99.90
19970;DHT22;10146;47.754;9.566;2023-07-13T13:13:28;26.30;99.90
19970;DHT22;10146;47.754;9.566;2023-07-13T13:15:54;26.40;99.90
19970;DHT22;10146;47.754;9.566;2023-07-13T13:18:22;26.60;99.90
19970;DHT22;10146;47.754;9.566;2023-07-13T13:20:50;26.80;99.90
19970;DHT22;10146;47.754;9.566;2023-07-13T13:23:18;27.10;99.90
19970;DHT22;10146;47.754;9.566;2023-07-13T13:25:46;27.50;99.90
19970;DHT22;10146;47.754;9.566;2023-07-13T13:28:18;27.80;99.80
19970;DHT22;10146;47.754;9.566;2023-07-13T13:30:45;27.90;98.80
19970;DHT22;10146;47.754;9.566;2023-07-13T13:33:14;27.80;98.90
19970;DHT22;10146;47.754;9.566;2023-07-13T13:35:41;27.90;97.10
19970;DHT22;10146;47.754;9.566;2023-07-13T13:38:27;28.10;97.40
19970;DHT22;10146;47.754;9.566;2023-07-13T13:40:53;27.50;94.40
19970;DHT22;10146;47.754;9.566;2023-07-13T13:43:23;27.60;96.00
19970;DHT22;10146;47.754;9.566;2023-07-13T13:45:56;28.10;97.40
19970;DHT22;10146;47.754;9.566;2023-07-13T13:48:33;28.30;95.00
19970;DHT22;10146;47.754;9.566;2023-07-13T13:51:01;28.20;93.60
19970;DHT22;10146;47.754;9.566;2023-07-13T13:53:29;28.40;93.30
19970;DHT22;10146;47.754;9.566;2023-07-13T13:55:55;28.50;94.10
19970;DHT22;10146;47.754;9.566;2023-07-13T13:58:20;28.50;93.60
19970;DHT22;10146;47.754;9.566;2023-07-13T14:00:47;28.80;92.90
19970;DHT22;10146;47.754;9.566;2023-07-13T14:03:22;28.70;90.40
19970;DHT22;10146;47.754;9.566;2023-07-13T14:05:48;28.50;90.60
19970;DHT22;10146;47.754;9.566;2023-07-13T14:08:21;28.50;91.00
19970;DHT22;10146;47.754;9.566;2023-07-13T14:10:50;28.40;91.50
19970;DHT22;10146;47.754;9.566;2023-07-13T14:13:28;28.50;91.60
19970;DHT22;10146;47.754;9.566;2023-07-13T14:15:55;28.80;91.30
19970;DHT22;10146;47.754;9.566;2023-07-13T14:18:21;29.10;90.90
19970;DHT22;10146;47.754;9.566;2023-07-13T14:20:48;29.20;90.20
19970;DHT22;10146;47.754;9.566;2023-07-13T14:23:17;29.20;89.40
19970;DHT22;10146;47.754;9.566;2023-07-13T14:25:47;29.30;89.50
19970;DHT22;10146;47.754;9.566;2023-07-13T14:28:23;29.40;87.60
19970;DHT22;10146;47.754;9.566;2023-07-13T14:30:49;29.60;87.20
19970;DHT22;10146;47.754;9.566;2023-07-13T14:33:15;29.70;84.70
19970;DHT22;10146;47.754;9.566;2023-07-13T14:35:41;29.20;83.10
19970;DHT22;10146;47.754;9.566;2023-07-13T14:38:11;29.20;86.20
19970;DHT22;10146;47.754;9.566;2023-07-13T14:40:38;29.40;84.30
19970;DHT22;10146;47.754;9.566;2023-07-13T14:43:04;29.50;83.00
19970;DHT22;10146;47.754;9.566;2023-07-13T14:45:30;29.50;84.40
19970;DHT22;10146;47.754;9.566;2023-07-13T14:47:57;29.60;82.90
19970;DHT22;10146;47.754;9.566;2023-07-13T14:50:32;29.20;81.90
19970;DHT22;10146;47.754;9.566;2023-07-13T14:52:58;28.90;83.90
19970;DHT22;10146;47.754;9.566;2023-07-13T14:55:24;28.90;84.40
19970;DHT22;10146;47.754;9.566;2023-07-13T14:57:52;29.30;83.40
19970;DHT22;10146;47.754;9.566;2023-07-13T15:00:20;29.80;81.10
19970;DHT22;10146;47.754;9.566;2023-07-13T15:02:53;30.30;81.00
19970;DHT22;10146;47.754;9.566;2023-07-13T15:05:23;30.40;78.70
19970;DHT22;10146;47.754;9.566;2023-07-13T15:07:50;30.10;78.60
19970;DHT22;10146;47.754;9.566;2023-07-13T15:10:22;29.60;79.60
19970;DHT22;10146;47.754;9.566;2023-07-13T15:12:50;28.60;82.30
19970;DHT22;10146;47.754;9.566;2023-07-13T15:15:16;27.90;84.90
19970;DHT22;10146;47.754;9.566;2023-07-13T15:17:44;27.70;86.30
19970;DHT22;10146;47.754;9.566;2023-07-13T15:20:34;28.20;85.00
19970;DHT22;10146;47.754;9.566;2023-07-13T15:23:01;28.50;84.00
19970;DHT22;10146;47.754;9.566;2023-07-13T15:25:28;28.90;84.50
19970;DHT22;10146;47.754;9.566;2023-07-13T15:27:57;29.20;80.40
19970;DHT22;10146;47.754;9.566;2023-07-13T15:30:31;29.50;81.40
19970;DHT22;10146;47.754;9.566;2023-07-13T15:33:21;29.00;82.10
19970;DHT22;10146;47.754;9.566;2023-07-13T15:35:47;29.30;79.90
19970;DHT22;10146;47.754;9.566;2023-07-13T15:38:20;29.70;79.00
19970;DHT22;10146;47.754;9.566;2023-07-13T15:40:48;30.00;79.90
19970;DHT22;10146;47.754;9.566;2023-07-13T15:43:14;29.90;79.40
19970;DHT22;10146;47.754;9.566;2023-07-13T15:45:41;30.20;79.40
19970;DHT22;10146;47.754;9.566;2023-07-13T15:48:19;30.30;77.60
19970;DHT22;10146;47.754;9.566;2023-07-13T15:50:48;30.90;77.30
19970;DHT22;10146;47.754;9.566;2023-07-13T15:53:23;31.30;74.00
19970;DHT22;10146;47.754;9.566;2023-07-13T15:55:49;31.60;72.90
19970;DHT22;10146;47.754;9.566;2023-07-13T15:58:16;32.30;70.90
19970;DHT22;10146;47.754;9.566;2023-07-13T16:00:42;32.50;69.10
19970;DHT22;10146;47.754;9.566;2023-07-13T16:03:10;31.50;71.30
19970;DHT22;10146;47.754;9.566;2023-07-13T16:05:36;31.40;72.60
19970;DHT22;10146;47.754;9.566;2023-07-13T16:08:04;32.00;69.70
19970;DHT22;10146;47.754;9.566;2023-07-13T16:10:36;33.10;66.80